Time;durP1;ratioP1;P1;durP2;ratioP2;P2;SDS_P1;SDS_P2;PMS_P1;PMS_P2;Temp;Humidity;BMP_temperature;BMP_pressure;BME280_temperature;BME280_humidity;BME280_pressure;Samples;Min_cycle;Max_cycle;Signal;HPM_P1;HPM_P2
2022/09/20 00:00:44;;;;;;;8.52;4.10;;;9.50;99.90;;;;;;5106664;28;20162;-68
2022/09/20 00:03:11;;;;;;;10.82;2.05;;;9.40;99.90;;;;;;5093898;28;20055;-68
2022/09/20 00:05:39;;;;;;;11.80;4.20;;;9.30;99.90;;;;;;5101320;28;20051;-68
2022/09/20 00:08:07;;;;;;;2.40;1.10;;;9.60;99.90;;;;;;5088061;28;20497;-68
2022/09/20 00:10:38;;;;;;;20.73;4.05;;;9.30;99.90;;;;;;5098848;28;20379;-68
2022/09/20 00:13:08;;;;;;;9.32;4.43;;;9.20;99.90;;;;;;5108402;28;20078;-68
2022/09/20 00:15:38;;;;;;;13.20;4.20;;;9.30;99.90;;;;;;5107974;28;20061;-68
2022/09/20 00:18:04;;;;;;;3.65;1.48;;;9.20;99.90;;;;;;5107185;28;20044;-68
2022/09/20 00:20:29;;;;;;;12.95;4.07;;;9.20;99.90;;;;;;5100405;28;20035;-68
2022/09/20 00:22:55;;;;;;;5.63;1.50;;;9.10;99.90;;;;;;5104298;28;20078;-68
2022/09/20 00:25:23;;;;;;;19.00;4.07;;;9.00;99.90;;;;;;5107704;28;20071;-68
2022/09/20 00:27:48;;;;;;;2.58;1.55;;;9.00;99.90;;;;;;5103305;28;20485;-68
2022/09/20 00:30:14;;;;;;;13.02;1.58;;;8.90;99.90;;;;;;5098971;28;20058;-68
2022/09/20 00:32:40;;;;;;;12.82;3.30;;;9.00;99.90;;;;;;5106209;27;20057;-68
2022/09/20 00:35:07;;;;;;;2.00;1.25;;;8.80;99.90;;;;;;5097742;28;20036;-68
2022/09/20 00:37:39;;;;;;;14.07;4.72;;;8.80;99.90;;;;;;5100013;28;20077;-68
2022/09/20 00:40:08;;;;;;;1.38;1.05;;;8.80;99.90;;;;;;5107824;28;20115;-68
2022/09/20 00:42:34;;;;;;;2.38;1.05;;;8.80;99.90;;;;;;5103890;28;20048;-68
2022/09/20 00:45:18;;;;;;;11.27;3.70;;;8.70;99.90;;;;;;5105096;28;20042;-68
2022/09/20 00:47:50;;;;;;;4.82;2.97;;;8.60;99.90;;;;;;5089530;28;20127;-68
2022/09/20 00:50:24;;;;;;;9.63;3.78;;;8.60;99.90;;;;;;5092537;28;20036;-68
2022/09/20 00:53:04;;;;;;;2.22;1.25;;;8.60;99.90;;;;;;5099595;28;20134;-68
2022/09/20 00:55:32;;;;;;;2.65;1.20;;;8.50;99.90;;;;;;5102890;28;20083;-68
2022/09/20 00:57:59;;;;;;;1.77;1.10;;;8.40;99.90;;;;;;5103834;28;20048;-68
2022/09/20 01:00:26;;;;;;;1.08;1.00;;;8.40;99.90;;;;;;5098439;28;20039;-68
2022/09/20 01:02:56;;;;;;;4.68;3.20;;;8.30;99.90;;;;;;5093426;28;20565;-68
2022/09/20 01:05:22;;;;;;;0.90;0.90;;;8.30;99.90;;;;;;5098546;28;20039;-68
2022/09/20 01:07:50;;;;;;;3.42;2.28;;;8.30;99.90;;;;;;5104278;28;20143;-68
2022/09/20 01:10:16;;;;;;;9.50;3.33;;;8.30;99.90;;;;;;5103616;28;20081;-68
2022/09/20 01:12:44;;;;;;;13.23;3.85;;;8.30;99.90;;;;;;5107818;28;20316;-68
2022/09/20 01:15:11;;;;;;;1.23;0.77;;;8.20;99.90;;;;;;5102334;28;20118;-68
2022/09/20 01:17:41;;;;;;;1.88;1.23;;;8.20;99.90;;;;;;5097479;28;20539;-68
2022/09/20 01:20:23;;;;;;;2.28;1.00;;;8.10;99.90;;;;;;5090368;28;20059;-68
2022/09/20 01:23:12;;;;;;;0.75;0.75;;;8.10;99.90;;;;;;5098566;28;20051;-68
2022/09/20 01:25:52;;;;;;;3.63;1.98;;;8.00;99.90;;;;;;5094604;28;20036;-68
2022/09/20 01:28:19;;;;;;;12.77;3.80;;;8.00;99.90;;;;;;5104205;28;20082;-68
2022/09/20 01:30:47;;;;;;;1.83;1.10;;;7.90;99.90;;;;;;5101704;28;20386;-67
2022/09/20 01:33:28;;;;;;;5.30;1.00;;;8.00;99.90;;;;;;5103555;28;20831;-68
2022/09/20 01:35:57;;;;;;;10.70;3.72;;;7.90;99.90;;;;;;5099652;28;20043;-68
2022/09/20 01:38:26;;;;;;;5.47;1.70;;;7.90;99.90;;;;;;5100301;28;20114;-68
2022/09/20 01:41:14;;;;;;;;;;;7.90;99.90;;;;;;5097498;28;20052;-68
2022/09/20 01:43:45;;;;;;;11.10;3.33;;;7.80;99.90;;;;;;5096670;28;19996;-68
2022/09/20 01:46:21;;;;;;;0.77;0.70;;;7.80;99.90;;;;;;5108657;28;20689;-68
2022/09/20 01:48:48;;;;;;;5.10;1.00;;;7.80;99.90;;;;;;5107018;28;20035;-68
2022/09/20 01:51:47;;;;;;;4.82;3.22;;;7.80;99.90;;;;;;5109303;28;20109;-68
2022/09/20 01:54:22;;;;;;;1.55;1.00;;;7.80;99.90;;;;;;5108603;28;20077;-68
2022/09/20 01:57:25;;;;;;;2.00;1.20;;;7.70;99.90;;;;;;5110338;28;20412;-68
2022/09/20 01:59:59;;;;;;;5.45;3.70;;;7.60;99.90;;;;;;5100270;28;20078;-68
2022/09/20 02:03:03;;;;;;;10.30;3.00;;;7.60;99.90;;;;;;5102078;28;20496;-68
2022/09/20 02:06:03;;;;;;;1.10;1.10;;;7.60;99.90;;;;;;5106143;28;20035;-68
2022/09/20 02:08:37;;;;;;;8.23;4.03;;;7.60;99.90;;;;;;5102374;28;20044;-68
2022/09/20 02:11:11;;;;;;;16.88;2.45;;;7.60;99.90;;;;;;5103449;28;20051;-68
2022/09/20 02:13:49;;;;;;;3.83;1.85;;;7.60;99.90;;;;;;5109594;28;20157;-68
2022/09/20 02:16:30;;;;;;;5.63;1.02;;;7.50;99.90;;;;;;5104656;28;20052;-68
2022/09/20 02:19:24;;;;;;;2.90;2.08;;;7.50;99.90;;;;;;5108579;28;20463;-68
2022/09/20 02:22:09;;;;;;;4.13;2.13;;;7.40;99.90;;;;;;5107871;28;20404;-68
2022/09/20 02:24:47;;;;;;;11.05;3.80;;;7.50;99.90;;;;;;5095758;28;20070;-68
2022/09/20 02:27:21;;;;;;;1.95;1.58;;;7.40;99.90;;;;;;5096152;28;20063;-68
2022/09/20 02:30:11;;;;;;;12.88;3.88;;;7.40;99.90;;;;;;5091069;28;20085;-68
2022/09/20 02:33:05;;;;;;;8.32;3.63;;;7.40;99.90;;;;;;5102735;28;20172;-67
2022/09/20 02:35:57;;;;;;;3.72;1.70;;;7.40;99.90;;;;;;5108655;28;20072;-68
2022/09/20 02:38:44;;;;;;;4.90;1.95;;;7.40;99.90;;;;;;5111048;28;20042;-67
2022/09/20 02:41:09;;;;;;;12.15;3.13;;;7.40;99.90;;;;;;5098713;28;20516;-67
2022/09/20 02:44:00;;;;;;;1.33;1.15;;;7.40;99.90;;;;;;5107493;28;20114;-68
2022/09/20 02:46:37;;;;;;;1.90;1.45;;;7.40;99.90;;;;;;5108455;28;20043;-68
2022/09/20 02:49:23;;;;;;;1.75;0.88;;;7.40;99.90;;;;;;5110294;28;20048;-68
2022/09/20 02:51:54;;;;;;;1.00;0.73;;;7.30;99.90;;;;;;5109995;28;20105;-68
2022/09/20 02:54:44;;;;;;;5.28;0.80;;;7.30;99.90;;;;;;5091379;28;20048;-68
2022/09/20 02:57:22;;;;;;;11.52;1.70;;;7.20;99.90;;;;;;5089387;28;20138;-68
2022/09/20 03:00:08;;;;;;;3.10;0.93;;;7.30;99.90;;;;;;5097343;28;20035;-67
2022/09/20 03:03:17;;;;;;;4.43;2.90;;;7.20;99.90;;;;;;5082857;28;20046;-68
2022/09/20 03:05:52;;;;;;;13.40;3.60;;;7.20;99.90;;;;;;5086177;28;20047;-67
2022/09/20 03:08:17;;;;;;;9.93;0.73;;;7.20;99.90;;;;;;5088402;28;20094;-68
2022/09/20 03:11:26;;;;;;;1.88;0.98;;;7.30;99.90;;;;;;5102187;28;20122;-68
2022/09/20 03:14:13;;;;;;;2.45;1.08;;;7.20;99.90;;;;;;5095638;28;20074;-68
2022/09/20 03:17:03;;;;;;;13.00;4.10;;;7.20;99.90;;;;;;5099297;28;20792;-68
2022/09/20 03:20:01;;;;;;;10.88;3.55;;;7.20;99.90;;;;;;5100253;27;20058;-67
2022/09/20 03:22:45;;;;;;;2.40;1.88;;;7.20;99.90;;;;;;5104459;28;20057;-68
2022/09/20 03:25:25;;;;;;;3.70;1.27;;;7.20;99.90;;;;;;5107410;28;20173;-67
2022/09/20 03:28:00;;;;;;;5.70;0.85;;;7.10;99.90;;;;;;5109479;28;20088;-68
2022/09/20 03:30:40;;;;;;;8.20;1.02;;;7.10;99.90;;;;;;5106707;28;20047;-67
2022/09/20 03:33:24;;;;;;;5.82;1.58;;;7.10;99.90;;;;;;5104947;28;20123;-68
2022/09/20 03:36:39;;;;;;;0.38;0.38;;;7.10;99.90;;;;;;5104535;28;20561;-68
2022/09/20 03:39:24;;;;;;;0.70;0.65;;;7.10;99.90;;;;;;5108335;28;20553;-68
2022/09/20 03:42:06;;;;;;;13.30;3.97;;;7.00;99.90;;;;;;5104159;28;20115;-67
2022/09/20 03:44:49;;;;;;;1.27;1.13;;;7.00;99.90;;;;;;5097125;28;20496;-68
2022/09/20 03:47:18;;;;;;;8.93;3.78;;;7.00;99.90;;;;;;5102048;28;20078;-68
2022/09/20 03:50:05;;;;;;;0.52;0.52;;;7.00;99.90;;;;;;5107194;28;20050;-67
2022/09/20 03:52:40;;;;;;;0.60;0.50;;;7.00;99.90;;;;;;5102331;28;20399;-68
2022/09/20 03:55:14;;;;;;;10.15;3.40;;;7.00;99.90;;;;;;5099740;28;20040;-67
2022/09/20 03:57:46;;;;;;;0.82;0.75;;;7.00;99.90;;;;;;5109125;28;20043;-68
2022/09/20 04:00:32;;;;;;;12.38;1.58;;;7.00;99.90;;;;;;5108645;28;20061;-67
2022/09/20 04:03:28;;;;;;;0.60;0.60;;;7.00;99.90;;;;;;5095775;28;20590;-68
2022/09/20 04:06:29;;;;;;;2.55;1.92;;;7.00;99.90;;;;;;5099515;28;20047;-68
2022/09/20 04:09:24;;;;;;;1.30;1.20;;;7.00;99.90;;;;;;5094092;28;20040;-68
2022/09/20 04:12:21;;;;;;;8.57;2.17;;;7.00;99.90;;;;;;5089647;28;20126;-68
2022/09/20 04:15:05;;;;;;;15.60;3.50;;;7.00;99.90;;;;;;5089242;28;20515;-68
2022/09/20 04:17:51;;;;;;;13.18;3.90;;;7.10;99.90;;;;;;5103989;28;20052;-67
2022/09/20 04:20:43;;;;;;;7.60;3.58;;;7.10;99.90;;;;;;5093323;28;20070;-67
2022/09/20 04:23:31;;;;;;;2.33;1.95;;;7.20;99.90;;;;;;5097569;28;20090;-67
2022/09/20 04:25:59;;;;;;;1.45;1.35;;;7.20;99.90;;;;;;5084206;28;20051;-67
2022/09/20 04:28:43;;;;;;;1.15;1.05;;;7.10;99.90;;;;;;5101412;28;20046;-67
2022/09/20 04:31:38;;;;;;;12.98;3.83;;;7.20;99.90;;;;;;5102015;28;20048;-67
2022/09/20 04:34:12;;;;;;;2.92;1.13;;;7.20;99.90;;;;;;5089026;28;20465;-67
2022/09/20 04:36:49;;;;;;;17.92;7.80;;;7.20;99.90;;;;;;5102112;28;20093;-68
2022/09/20 04:39:27;;;;;;;1.57;1.47;;;7.10;99.90;;;;;;5107111;28;20148;-67
2022/09/20 04:42:14;;;;;;;1.03;1.03;;;7.10;99.90;;;;;;5106712;28;20362;-67
2022/09/20 04:45:07;;;;;;;2.92;1.52;;;7.10;99.90;;;;;;5104987;28;20305;-67
2022/09/20 04:48:02;;;;;;;1.20;1.08;;;7.10;99.90;;;;;;5099419;28;20056;-67
2022/09/20 04:50:55;;;;;;;2.05;1.95;;;7.10;99.90;;;;;;5091442;28;20047;-67
2022/09/20 04:53:39;;;;;;;2.90;1.35;;;7.10;99.90;;;;;;5094333;28;20055;-68
2022/09/20 04:56:16;;;;;;;4.57;1.58;;;7.10;99.90;;;;;;5090477;28;20055;-67
2022/09/20 04:59:20;;;;;;;1.80;1.13;;;7.00;99.90;;;;;;5087937;28;20454;-67
2022/09/20 05:02:18;;;;;;;1.55;1.20;;;7.10;99.90;;;;;;5098103;28;20056;-68
2022/09/20 05:05:02;;;;;;;;;;;7.10;99.90;;;;;;5093347;28;20051;-67
2022/09/20 05:07:57;;;;;;;13.02;1.73;;;7.10;99.90;;;;;;5095331;28;20452;-67
2022/09/20 05:10:42;;;;;;;13.75;5.15;;;7.40;99.90;;;;;;5098529;28;20051;-68
2022/09/20 05:13:29;;;;;;;9.98;5.78;;;7.10;99.90;;;;;;5097606;28;20127;-67
2022/09/20 05:16:17;;;;;;;27.50;6.65;;;7.20;99.90;;;;;;5106211;28;20076;-68
2022/09/20 05:19:07;;;;;;;8.45;2.03;;;7.20;99.90;;;;;;5092758;28;20048;-67
2022/09/20 05:21:51;;;;;;;8.45;3.40;;;7.10;99.90;;;;;;5107362;28;20047;-67
2022/09/20 05:24:20;;;;;;;3.00;1.60;;;7.20;99.90;;;;;;5111661;28;20044;-67
2022/09/20 05:27:12;;;;;;;12.07;1.77;;;7.30;99.90;;;;;;5105653;28;20130;-67
2022/09/20 05:29:50;;;;;;;1.38;1.02;;;7.30;99.90;;;;;;5097230;28;20039;-67
2022/09/20 05:32:22;;;;;;;0.90;0.82;;;7.30;99.90;;;;;;5103264;28;20130;-67
2022/09/20 05:35:05;;;;;;;1.45;0.82;;;7.30;99.90;;;;;;5106768;28;20056;-67
2022/09/20 05:37:48;;;;;;;3.45;1.27;;;7.40;99.90;;;;;;5109824;28;20043;-67
2022/09/20 05:40:42;;;;;;;12.20;3.60;;;7.40;99.90;;;;;;5109789;27;20040;-67
2022/09/20 05:43:26;;;;;;;18.27;4.50;;;7.50;99.90;;;;;;5098097;28;20051;-67
2022/09/20 05:46:15;;;;;;;6.95;1.58;;;7.70;99.90;;;;;;5109704;27;20054;-67
2022/09/20 05:49:00;;;;;;;6.32;1.42;;;7.80;99.90;;;;;;5108349;28;20040;-68
2022/09/20 05:51:46;;;;;;;12.63;4.90;;;7.90;99.90;;;;;;5102228;28;20032;-67
2022/09/20 05:54:24;;;;;;;10.65;5.00;;;8.10;99.90;;;;;;5099897;28;20173;-67
2022/09/20 05:56:56;;;;;;;7.28;1.45;;;8.30;99.90;;;;;;5099222;28;20898;-68
2022/09/20 05:59:40;;;;;;;5.07;2.33;;;8.50;99.90;;;;;;5101352;28;20072;-68
2022/09/20 06:02:24;;;;;;;7.47;1.60;;;8.60;99.90;;;;;;5103375;27;20115;-68
2022/09/20 06:05:15;;;;;;;2.50;1.60;;;8.80;99.90;;;;;;5098264;28;20040;-68
2022/09/20 06:07:54;;;;;;;2.78;1.40;;;9.00;99.90;;;;;;5094373;28;20071;-68
2022/09/20 06:10:30;;;;;;;4.78;1.23;;;9.20;99.90;;;;;;5101300;28;20059;-68
2022/09/20 06:13:36;;;;;;;3.33;1.52;;;9.30;99.90;;;;;;5101491;27;20103;-68
2022/09/20 06:16:04;;;;;;;8.98;5.50;;;9.80;99.90;;;;;;5091932;28;20049;-68
2022/09/20 06:18:52;;;;;;;6.03;2.45;;;9.60;99.90;;;;;;5108615;28;20074;-68
2022/09/20 06:21:40;;;;;;;1.15;0.93;;;9.70;99.90;;;;;;5101519;28;20125;-68
2022/09/20 06:24:36;;;;;;;6.82;1.02;;;9.70;99.90;;;;;;5103352;28;20101;-68
2022/09/20 06:27:09;;;;;;;8.13;4.10;;;9.80;99.90;;;;;;5099087;28;20043;-68
2022/09/20 06:29:40;;;;;;;20.58;4.85;;;9.90;99.90;;;;;;5108192;28;20502;-68
2022/09/20 06:32:07;;;;;;;11.40;2.83;;;10.00;99.90;;;;;;5092319;28;20044;-68
2022/09/20 06:34:34;;;;;;;4.57;2.15;;;10.10;99.90;;;;;;5098421;28;20139;-68
2022/09/20 06:43:20;;;;;;;15.07;4.90;;;10.20;99.90;;;;;;5103011;28;20060;-68
2022/09/20 06:45:47;;;;;;;8.23;3.50;;;10.20;99.90;;;;;;5092647;28;20485;-68
2022/09/20 06:48:14;;;;;;;2.97;1.40;;;10.20;99.90;;;;;;5105157;27;20048;-68
2022/09/20 06:50:44;;;;;;;9.57;3.83;;;10.30;99.90;;;;;;5097807;28;20630;-68
2022/09/20 06:53:16;;;;;;;10.45;3.70;;;10.30;99.90;;;;;;5109578;28;20400;-68
2022/09/20 06:55:43;;;;;;;10.18;1.17;;;10.30;99.90;;;;;;5079875;28;20040;-68
2022/09/20 06:58:10;;;;;;;2.72;1.45;;;10.30;99.90;;;;;;5090542;28;20054;-68
2022/09/20 07:00:38;;;;;;;1.27;1.05;;;10.40;99.90;;;;;;5089475;28;20492;-68
2022/09/20 07:03:04;;;;;;;4.57;1.15;;;10.30;99.90;;;;;;5101752;28;20439;-68
2022/09/20 07:05:30;;;;;;;12.35;4.10;;;10.40;99.90;;;;;;5101480;28;20043;-68
2022/09/20 07:07:57;;;;;;;11.38;3.75;;;10.40;99.90;;;;;;5106358;27;20545;-68
2022/09/20 07:10:24;;;;;;;13.35;3.80;;;10.40;99.90;;;;;;5109849;28;20122;-68
2022/09/20 07:12:49;;;;;;;16.65;3.08;;;10.60;99.90;;;;;;5102655;28;20495;-68
2022/09/20 07:15:15;;;;;;;9.60;3.75;;;10.70;99.90;;;;;;5094028;28;20146;-68
2022/09/20 07:17:44;;;;;;;7.70;4.30;;;10.80;99.90;;;;;;5099466;28;20055;-68
2022/09/20 07:20:10;;;;;;;6.30;3.55;;;10.90;99.90;;;;;;5095274;28;20112;-70
2022/09/20 07:22:36;;;;;;;16.17;3.88;;;11.10;99.90;;;;;;5102445;28;20056;-68
2022/09/20 07:25:02;;;;;;;6.20;2.70;;;11.20;99.90;;;;;;5105901;28;20052;-68
2022/09/20 07:27:28;;;;;;;10.95;4.53;;;11.40;99.90;;;;;;5087591;28;20816;-68
2022/09/20 07:29:55;;;;;;;1.63;1.35;;;11.60;99.90;;;;;;5095208;28;20032;-68
2022/09/20 07:32:21;;;;;;;3.53;1.20;;;11.80;99.90;;;;;;5108015;28;20047;-68
2022/09/20 07:34:46;;;;;;;3.47;1.13;;;12.00;99.90;;;;;;5107740;28;20042;-68
2022/09/20 07:37:12;;;;;;;15.63;3.47;;;12.20;99.90;;;;;;5108130;28;20044;-69
2022/09/20 07:39:38;;;;;;;3.25;1.27;;;12.50;99.90;;;;;;5094342;28;20514;-68
2022/09/20 07:42:07;;;;;;;14.73;5.25;;;12.80;99.90;;;;;;5093689;28;20039;-68
2022/09/20 07:44:32;;;;;;;17.95;3.45;;;13.00;99.90;;;;;;5091652;28;20076;-68
2022/09/20 07:46:59;;;;;;;8.60;3.08;;;13.20;99.90;;;;;;5101756;28;20181;-69
2022/09/20 07:49:29;;;;;;;5.35;2.47;;;13.50;99.90;;;;;;5100135;28;20067;-69
2022/09/20 07:51:55;;;;;;;7.43;2.30;;;13.70;99.90;;;;;;5103981;28;20040;-68
2022/09/20 07:54:21;;;;;;;6.30;4.80;;;13.90;99.90;;;;;;5101082;28;20055;-68
2022/09/20 07:56:47;;;;;;;7.05;5.55;;;14.10;99.90;;;;;;5102062;28;20115;-69
2022/09/20 07:59:13;;;;;;;15.75;6.50;;;14.20;99.90;;;;;;5093103;28;20040;-69
2022/09/20 08:01:39;;;;;;;12.02;4.80;;;14.50;99.90;;;;;;5098371;28;20042;-68
2022/09/20 08:04:07;;;;;;;5.80;3.20;;;14.60;99.90;;;;;;5093205;28;20040;-69
2022/09/20 08:06:38;;;;;;;3.20;2.92;;;14.60;99.90;;;;;;5104504;28;20472;-68
2022/09/20 08:09:04;;;;;;;6.60;3.05;;;14.80;99.90;;;;;;5098158;28;20039;-69
2022/09/20 08:11:30;;;;;;;4.68;2.05;;;14.70;99.90;;;;;;5102543;28;20051;-70
2022/09/20 08:13:58;;;;;;;3.40;1.98;;;14.70;99.90;;;;;;5103876;28;20043;-69
2022/09/20 08:16:25;;;;;;;5.93;2.00;;;14.50;99.90;;;;;;5105984;28;20097;-69
2022/09/20 08:18:57;;;;;;;3.78;1.52;;;14.50;99.90;;;;;;5096709;28;20051;-69
2022/09/20 08:21:30;;;;;;;10.55;2.30;;;14.50;99.90;;;;;;5099566;28;20028;-69
2022/09/20 08:23:58;;;;;;;3.65;1.70;;;14.50;99.90;;;;;;5108187;28;20583;-69
2022/09/20 08:26:25;;;;;;;3.17;1.70;;;14.50;99.90;;;;;;5106878;28;20520;-69
2022/09/20 08:28:53;;;;;;;3.25;1.70;;;14.50;99.90;;;;;;5107509;28;20453;-69
2022/09/20 08:31:21;;;;;;;9.70;1.95;;;14.40;99.90;;;;;;5108121;28;20073;-69
2022/09/20 08:33:49;;;;;;;3.28;1.95;;;14.40;99.90;;;;;;5103172;28;20061;-69
2022/09/20 08:36:23;;;;;;;2.60;1.45;;;14.50;99.90;;;;;;5102881;28;20058;-69
2022/09/20 08:38:49;;;;;;;3.22;1.85;;;14.50;99.90;;;;;;5106333;28;20062;-69
2022/09/20 08:41:26;;;;;;;3.88;1.30;;;14.60;99.90;;;;;;5099941;28;20051;-69
2022/09/20 08:43:59;;;;;;;22.80;2.33;;;14.70;99.90;;;;;;5102566;28;20459;-69
2022/09/20 08:46:40;;;;;;;7.47;1.92;;;14.80;99.90;;;;;;5100062;28;20086;-69
2022/09/20 08:49:07;;;;;;;7.43;1.83;;;14.80;99.90;;;;;;5091081;28;20400;-69
2022/09/20 08:51:42;;;;;;;9.55;2.03;;;14.80;99.90;;;;;;5106743;28;20058;-68
2022/09/20 08:54:12;;;;;;;10.05;1.83;;;14.70;99.90;;;;;;5095926;28;20058;-69
2022/09/20 08:56:38;;;;;;;8.32;2.42;;;14.80;99.90;;;;;;5095011;28;20055;-68
2022/09/20 08:59:05;;;;;;;6.60;2.10;;;15.00;99.90;;;;;;5103470;28;20035;-68
2022/09/20 09:01:32;;;;;;;4.95;1.60;;;15.00;99.90;;;;;;5104263;28;20454;-68
2022/09/20 09:04:16;;;;;;;5.90;2.00;;;15.00;99.90;;;;;;5100786;28;20056;-69
2022/09/20 09:06:44;;;;;;;4.80;2.53;;;15.10;99.90;;;;;;5104190;28;20477;-68
2022/09/20 09:09:22;;;;;;;7.20;1.63;;;15.30;99.90;;;;;;5095093;28;20115;-69
2022/09/20 09:11:49;;;;;;;37.80;4.47;;;15.40;99.90;;;;;;5100165;28;20118;-68
2022/09/20 09:17:27;;;;;;;4.30;2.00;;;15.90;99.90;;;;;;5084364;28;20060;-69
2022/09/20 09:20:14;;;;;;;6.85;1.65;;;16.00;99.90;;;;;;5088403;28;20047;-68
2022/09/20 09:22:42;;;;;;;3.05;1.58;;;16.20;99.90;;;;;;5102977;28;20539;-68
2022/09/20 09:25:21;;;;;;;5.85;1.63;;;16.50;99.90;;;;;;5093418;28;20488;-68
2022/09/20 09:28:02;;;;;;;4.07;1.83;;;16.70;99.90;;;;;;5106222;28;20064;-68
2022/09/20 09:30:34;;;;;;;13.32;2.20;;;16.90;99.90;;;;;;5107674;28;20048;-68
2022/09/20 09:33:26;;;;;;;6.80;2.03;;;17.00;99.90;;;;;;5097973;28;20066;-68
2022/09/20 09:36:03;;;;;;;7.85;2.15;;;17.30;99.90;;;;;;5104206;28;20055;-68
2022/09/20 09:38:32;;;;;;;15.07;2.37;;;17.30;99.90;;;;;;5104189;28;20047;-68
2022/09/20 09:41:23;;;;;;;13.10;2.05;;;17.70;99.90;;;;;;5107560;28;20028;-68
2022/09/20 09:44:09;;;;;;;7.25;1.65;;;17.80;99.90;;;;;;5101550;28;20848;-68
2022/09/20 09:46:37;;;;;;;11.93;2.00;;;18.00;99.90;;;;;;5104700;28;20083;-69
2022/09/20 09:49:20;;;;;;;12.35;2.88;;;18.20;99.90;;;;;;5091181;28;20040;-69
2022/09/20 09:52:13;;;;;;;6.22;2.05;;;18.30;99.90;;;;;;5092191;28;20044;-69
2022/09/20 09:54:45;;;;;;;4.25;1.90;;;18.10;99.90;;;;;;5091164;28;20044;-69
2022/09/20 09:57:32;;;;;;;5.95;2.60;;;18.20;99.90;;;;;;5107739;28;20517;-69
2022/09/20 10:00:20;;;;;;;4.97;1.70;;;18.60;99.90;;;;;;5101908;28;20114;-69
2022/09/20 10:03:07;;;;;;;4.82;1.90;;;18.70;99.90;;;;;;5091498;28;20813;-69
2022/09/20 10:05:33;;;;;;;;;;;18.70;99.90;;;;;;5099627;28;20040;-69
2022/09/20 10:08:20;;;;;;;8.20;2.42;;;19.00;99.90;;;;;;5103226;28;19985;-68
2022/09/20 10:11:13;;;;;;;8.38;3.33;;;18.80;99.90;;;;;;5105847;28;20043;-69
2022/09/20 10:13:46;;;;;;;2.47;1.45;;;18.70;99.90;;;;;;5097640;28;20131;-68
2022/09/20 10:16:31;;;;;;;10.15;2.50;;;18.50;99.90;;;;;;5104881;28;20574;-68
2022/09/20 10:19:11;;;;;;;10.00;2.05;;;18.40;99.90;;;;;;5107519;28;20048;-68
2022/09/20 10:22:03;;;;;;;10.02;2.08;;;18.10;99.90;;;;;;5104234;28;20078;-68
2022/09/20 10:24:54;;;;;;;9.65;2.03;;;17.90;99.90;;;;;;5104887;28;20059;-69
2022/09/20 10:27:37;;;;;;;11.82;2.58;;;17.80;99.90;;;;;;5101184;28;20083;-68
2022/09/20 10:30:11;;;;;;;7.32;2.50;;;17.80;99.90;;;;;;5109217;28;20078;-68
2022/09/20 10:32:44;;;;;;;4.10;2.03;;;17.80;99.90;;;;;;5100516;28;20459;-68
2022/09/20 10:35:18;;;;;;;5.22;2.40;;;17.80;99.90;;;;;;5107148;28;20055;-68
2022/09/20 10:38:10;;;;;;;3.75;1.42;;;17.80;99.90;;;;;;5108845;28;20100;-68
2022/09/20 10:44:04;;;;;;;5.90;1.92;;;17.50;99.90;;;;;;5099879;28;20044;-68
2022/09/20 10:46:59;;;;;;;5.70;1.73;;;17.50;99.90;;;;;;5097155;28;20420;-68
2022/09/20 10:49:50;;;;;;;5.95;1.60;;;17.50;99.90;;;;;;5104126;28;20050;-68
2022/09/20 10:52:45;;;;;;;12.52;2.83;;;17.50;99.90;;;;;;5109816;28;20100;-68
2022/09/20 10:55:32;;;;;;;11.25;2.08;;;17.60;99.90;;;;;;5094758;28;20054;-68
2022/09/20 10:58:15;;;;;;;2.95;1.52;;;17.70;99.90;;;;;;5092743;28;20043;-68
2022/09/20 11:01:00;;;;;;;3.28;1.55;;;17.60;99.90;;;;;;5104254;28;20048;-68
2022/09/20 11:03:25;;;;;;;11.65;2.20;;;17.70;99.90;;;;;;5099308;28;20044;-68
2022/09/20 11:06:12;;;;;;;4.68;2.10;;;17.60;99.90;;;;;;5094569;28;20408;-67
2022/09/20 11:08:39;;;;;;;6.20;3.40;;;17.60;99.90;;;;;;5109637;28;20039;-68
2022/09/20 11:11:31;;;;;;;9.20;6.20;;;17.50;99.90;;;;;;5107103;28;20035;-68
2022/09/20 11:14:05;;;;;;;11.40;3.63;;;17.60;99.90;;;;;;5105179;28;20039;-68
2022/09/20 11:16:52;;;;;;;3.33;2.00;;;17.70;99.90;;;;;;5108607;28;20176;-68
2022/09/20 11:19:37;;;;;;;6.78;2.83;;;17.80;99.90;;;;;;5103621;28;20093;-68
2022/09/20 11:22:17;;;;;;;11.27;2.72;;;18.00;99.90;;;;;;5104930;28;20043;-68
2022/09/20 11:25:12;;;;;;;5.22;2.13;;;18.20;99.90;;;;;;5092773;28;20040;-68
2022/09/20 11:27:47;;;;;;;8.30;2.58;;;18.30;99.90;;;;;;5102160;28;20148;-69
2022/09/20 11:30:19;;;;;;;7.88;3.40;;;18.30;99.90;;;;;;5104664;28;20061;-68
2022/09/20 11:33:10;;;;;;;7.25;2.03;;;18.20;97.30;;;;;;5101681;28;20085;-68
2022/09/20 11:35:43;;;;;;;9.98;2.05;;;18.30;97.10;;;;;;5105096;28;20119;-68
2022/09/20 11:38:32;;;;;;;15.65;2.67;;;18.20;98.80;;;;;;5109353;28;20136;-68
2022/09/20 11:41:03;;;;;;;7.22;2.42;;;18.30;95.90;;;;;;5090460;28;20050;-69
2022/09/20 11:43:31;;;;;;;8.25;1.90;;;18.50;99.20;;;;;;5097930;27;20043;-69
2022/09/20 11:46:06;;;;;;;3.42;2.45;;;18.80;98.90;;;;;;5097062;28;20043;-69
2022/09/20 11:48:44;;;;;;;6.53;1.58;;;19.00;97.40;;;;;;5100046;28;20054;-69
2022/09/20 11:51:18;;;;;;;5.60;2.35;;;18.90;91.80;;;;;;5095822;28;20044;-70
2022/09/20 11:54:14;;;;;;;4.43;2.10;;;19.00;95.50;;;;;;5108381;28;20051;-70
2022/09/20 11:56:40;;;;;;;13.32;2.22;;;19.10;92.00;;;;;;5100122;28;20187;-71
2022/09/20 11:59:21;;;;;;;7.75;2.58;;;19.40;94.80;;;;;;5106491;28;20043;-71
2022/09/20 12:01:47;;;;;;;11.63;2.17;;;19.50;94.60;;;;;;5101617;28;20651;-71
2022/09/20 12:04:28;;;;;;;7.10;1.77;;;19.50;92.60;;;;;;5107538;28;20039;-71
2022/09/20 12:07:20;;;;;;;8.07;2.33;;;19.60;94.10;;;;;;5094595;28;20131;-72
2022/09/20 12:09:53;;;;;;;5.78;1.98;;;19.60;93.10;;;;;;5106382;28;20047;-72
2022/09/20 12:12:42;;;;;;;5.03;2.03;;;19.50;90.00;;;;;;5105608;28;20487;-73
2022/09/20 12:15:28;;;;;;;6.75;2.05;;;19.60;91.70;;;;;;5099939;28;20492;-73
2022/09/20 12:17:57;;;;;;;8.95;1.42;;;19.50;92.50;;;;;;5093045;28;20040;-73
2022/09/20 12:20:31;;;;;;;6.93;1.85;;;19.60;93.70;;;;;;5107117;28;20511;-74
2022/09/20 12:23:41;;;;;;;11.98;2.30;;;19.40;90.20;;;;;;5094173;28;20050;-73
2022/09/20 12:26:27;;;;;;;9.88;2.28;;;19.20;91.40;;;;;;5076768;28;20052;-73
2022/09/20 12:28:55;;;;;;;9.27;2.50;;;19.20;93.20;;;;;;5105459;28;20127;-73
2022/09/20 12:31:20;;;;;;;9.18;3.08;;;19.10;92.50;;;;;;5105181;28;20138;-73
2022/09/20 12:34:01;;;;;;;7.35;2.10;;;18.80;90.80;;;;;;5098150;28;20135;-73
2022/09/20 12:36:34;;;;;;;9.48;3.13;;;18.80;92.00;;;;;;5102913;28;20051;-73
2022/09/20 12:39:12;;;;;;;10.00;2.65;;;18.80;92.80;;;;;;5089512;28;20292;-73
2022/09/20 12:41:47;;;;;;;11.68;3.60;;;18.70;92.30;;;;;;5106758;28;20040;-73
2022/09/20 12:44:53;;;;;;;6.47;2.15;;;18.60;92.50;;;;;;5107353;28;20079;-73
2022/09/20 12:47:25;;;;;;;10.18;2.90;;;18.60;92.40;;;;;;5096887;28;20051;-73
2022/09/20 12:52:57;;;;;;;5.90;2.20;;;18.60;91.50;;;;;;5104152;28;20058;-73
2022/09/20 12:55:29;;;;;;;5.45;2.17;;;18.60;92.90;;;;;;5104366;28;20062;-73
2022/09/20 12:58:14;;;;;;;5.47;1.90;;;18.60;93.00;;;;;;5103969;28;20048;-73
2022/09/20 13:00:41;;;;;;;9.57;2.97;;;18.50;89.60;;;;;;5100368;28;20151;-73
2022/09/20 13:03:33;;;;;;;7.13;2.58;;;18.60;90.50;;;;;;5100190;28;20624;-73
2022/09/20 13:09:09;;;;;;;13.18;2.83;;;18.80;90.50;;;;;;5106244;28;20055;-73
2022/09/20 13:11:51;;;;;;;6.72;2.35;;;19.00;90.00;;;;;;5073054;28;20092;-72
2022/09/20 13:14:26;;;;;;;9.18;2.83;;;19.00;90.20;;;;;;5105471;28;20048;-72
2022/09/20 13:17:21;;;;;;;14.93;2.45;;;19.00;88.40;;;;;;5090533;28;20050;-72
2022/09/20 13:19:49;;;;;;;9.32;2.35;;;18.80;86.30;;;;;;5093199;28;20078;-73
2022/09/20 13:22:24;;;;;;;;;;;18.70;90.90;;;;;;5098315;28;20044;-73
2022/09/20 13:24:55;;;;;;;16.98;2.70;;;18.70;91.30;;;;;;5093614;28;20010;-73
2022/09/20 13:27:31;;;;;;;9.02;1.83;;;18.70;90.60;;;;;;5096710;28;20091;-72
2022/09/20 13:30:13;;;;;;;5.85;2.47;;;18.60;90.90;;;;;;5093469;28;20215;-73
2022/09/20 13:32:41;;;;;;;6.15;2.22;;;18.50;90.00;;;;;;5089044;28;20052;-73
2022/09/20 13:35:06;;;;;;;13.63;2.13;;;18.40;90.40;;;;;;5090810;28;20066;-73
2022/09/20 13:37:33;;;;;;;8.65;2.00;;;18.30;90.60;;;;;;5094832;28;20052;-73
2022/09/20 13:39:59;;;;;;;7.68;2.10;;;18.40;91.20;;;;;;5100528;28;20044;-73
2022/09/20 13:42:28;;;;;;;3.47;1.60;;;18.40;91.00;;;;;;5101999;28;20055;-73
2022/09/20 13:44:56;;;;;;;13.00;2.28;;;18.60;91.10;;;;;;5098653;28;20040;-73
2022/09/20 13:47:30;;;;;;;5.60;2.25;;;18.60;90.40;;;;;;5105777;28;20132;-73
2022/09/20 13:50:01;;;;;;;4.32;1.90;;;18.70;88.30;;;;;;5109774;28;20119;-73
2022/09/20 13:52:29;;;;;;;10.38;2.00;;;18.60;90.50;;;;;;5107549;28;20082;-73
2022/09/20 13:54:55;;;;;;;5.43;2.00;;;18.30;89.20;;;;;;5099736;28;20378;-73
2022/09/20 13:57:26;;;;;;;7.28;2.67;;;18.40;90.00;;;;;;5091287;28;20135;-74
2022/09/20 13:59:53;;;;;;;7.45;2.50;;;18.30;89.80;;;;;;5092938;28;20048;-73
2022/09/20 14:02:25;;;;;;;6.90;2.13;;;18.40;90.90;;;;;;5095342;28;20592;-74